Terminal Aerodrome Forecast
Issued by NWS Dodge City, KS

Home | Current Version | Previous Version | Graphics & Text | Print | Product List | Glossary Off
Versions: 1 2 3 4 5 6 7 8 9 10 11 12 13 14 15 16 17 18 19

000
FTUS43 KDDC 202300
TAFDDC
TAF
KDDC 202326Z 2100/2124 15019G25KT P6SM VCTS SCT020CB SCT110
     FM210200 14009KT P6SM BKN150
     FM211500 01015G22KT P6SM SCT250=

USA.gov is the U.S. government's official web portal to all federal, state and local government web resources and services.